METAR Reports From Nearby Airports

 

KLUD - Decatur, Texas, USA
Distance from Wildwood: IKA 5mi, 8km
Päivitetty: Feb 22, 2024 7:15am
Selkeätä
Selkeätä
 Tuulen suunta LLO
Tuuli: LLO 8 mph , 13 km/h
Lämpötila: 59°F , 15°C
Kastepiste: 55°F , 13°C
Kosteus: 88%
Ilmanpaine: 29.77 inHg , 1008.1 hPa
Clouds: Selkeätä
Visibility: 10 miles , 16 km
2024/02/22 13:15 KLUD 221315Z AUTO 24007KT 10SM CLR 15/13 A2977 RMK AO2 T01510130
KXBP - Bridgeport, Texas, USA
Distance from Wildwood: LLO 11mi, 18km
Päivitetty: Feb 22, 2024 7:15am
Selkeätä
Selkeätä
 Tuulen suunta LLO
Tuuli: LLO 7 mph , 11 km/h
Lämpötila: 57°F , 14°C
Kastepiste: 54°F , 12°C
Kosteus: 88%
Ilmanpaine: 29.79 inHg , 1008.8 hPa
Clouds: Selkeätä
Visibility: 10 miles , 16 km
2024/02/22 13:15 KXBP 221315Z AUTO 24006KT 10SM CLR 14/12 A2979 RMK AO2 T01400120
 
K0F2 - Bowie, Texas, USA
Distance from Wildwood: PLU 24mi, 39km
Päivitetty: Feb 22, 2024 7:15am
Selkeätä
Selkeätä
 Tuulen suunta L
Tuuli: L 5 mph , 7 km/h
Lämpötila: 57°F , 14°C
Kastepiste: 46°F , 8°C
Kosteus: 67%
Ilmanpaine: 29.77 inHg , 1008.1 hPa
Clouds: Selkeätä
Visibility: 10 miles , 16 km
2024/02/22 13:15 K0F2 221315Z AUTO 27004KT 10SM CLR 14/08 A2977 RMK AO2 T01410079
KDTO - Denton, Texas, USA
Distance from Wildwood: I 27mi, 44km
Päivitetty: Feb 22, 2024 6:53am
Selkeätä
Selkeätä
 Tuulen suunta E
Tuuli: E 9 mph , 15 km/h
Lämpötila: 57°F , 14°C
Kastepiste: 57°F , 14°C
Kosteus: 100%
Ilmanpaine: 29.76 inHg , 1007.8 hPa
Clouds: Selkeätä
Visibility: 10 miles , 16 km
2024/02/22 12:53 KDTO 221253Z 19008KT 10SM CLR 14/14 A2976 RMK AO2 SLP072 T01440139
 
KAFW - Ft Worth/Allianc, Texas, USA
Distance from Wildwood: KA 29mi, 46km
Päivitetty: Feb 22, 2024 6:53am
Few Clouds
Few Clouds
 Tuulen suunta LO
Tuuli: LO 13 mph , 20 km/h
Lämpötila: 61°F , 16°C
Kastepiste: 57°F , 14°C
Kosteus: 88%
Ilmanpaine: 29.76 inHg , 1007.8 hPa
Clouds: Few Clouds
Visibility: 10 miles , 16 km
Cloud details: Few Clouds 2000 ft
Few Clouds 25000 ft
2024/02/22 12:53 KAFW 221253Z 22011KT 10SM FEW020 FEW250 16/14 A2976 RMK AO2 SLP069 T01610144
KFTW - Fort Worth, Texas, USA
Distance from Wildwood: EKA 34mi, 55km
Päivitetty: Feb 22, 2024 6:53am
Selkeätä
Selkeätä
 Tuulen suunta ELO
Tuuli: ELO 7 mph , 11 km/h
Lämpötila: 61°F , 16°C
Kastepiste: 57°F , 14°C
Kosteus: 88%
Ilmanpaine: 29.76 inHg , 1007.8 hPa
Clouds: Selkeätä
Visibility: 10 miles , 16 km
2024/02/22 12:53 KFTW 221253Z 21006KT 10SM CLR 16/14 A2976 RMK AO2 SLP072 T01560144
 
KNFW - Fort Worth Nas, Texas, USA
Distance from Wildwood: EKA 36mi, 58km
Päivitetty: Feb 22, 2024 6:52am
Few Clouds
Few Clouds
 Tuulen suunta ELO
Tuuli: ELO 10 mph , 17 km/h
Lämpötila: 63°F , 17°C
Kastepiste: 57°F , 14°C
Kosteus: 83%
Ilmanpaine: 29.77 inHg , 1008.1 hPa
Clouds: Few Clouds
Visibility: 10 miles , 16 km
Cloud details: Few Clouds 25000 ft
2024/02/22 12:52 KNFW 221252Z 21009KT 10SM FEW250 17/14 A2977 RMK AO2 SLP067 T01670139 $
KGLE - Gainesville, Texas, USA
Distance from Wildwood: KO 38mi, 61km
Päivitetty: Feb 22, 2024 7:15am
Mist, Vaihetelvaa
Mist, Vaihetelvaa
 Tuulen suunta calm
Tuuli: Tyyntä
Lämpötila: 52°F , 11°C
Kastepiste: 52°F , 11°C
Kosteus: 100%
Ilmanpaine: 29.77 inHg , 1008.1 hPa
Yhteenveto: Mist
Clouds: Vaihetelvaa
Visibility: 1 mile , 2 km
Cloud details: Vaihetelvaa 700 ft
2024/02/22 13:15 KGLE 221315Z AUTO 00000KT 1SM BR VV007 11/11 A2977 RMK AO2 VIS 1/4V4 T01140114
 
KMWL - Mineral Wells, Texas, USA
Distance from Wildwood: LO 41mi, 65km
Päivitetty: Feb 22, 2024 6:53am
Selkeätä
Selkeätä
 Tuulen suunta ELO
Tuuli: ELO 5 mph , 7 km/h
Lämpötila: 57°F , 14°C
Kastepiste: 54°F , 12°C
Kosteus: 88%
Ilmanpaine: 29.77 inHg , 1008.1 hPa
Clouds: Selkeätä
Visibility: 10 miles , 16 km
2024/02/22 12:53 KMWL 221253Z AUTO 20004KT 10SM CLR 14/12 A2977 RMK AO2 SLP071 T01390117
KDFW - Dallas/Ft Worth, Texas, USA
Distance from Wildwood: IKA 45mi, 73km
Päivitetty: Feb 22, 2024 6:53am
Few Clouds
Few Clouds
 Tuulen suunta ELO
Tuuli: ELO 7 mph , 11 km/h
Lämpötila: 63°F , 17°C
Kastepiste: 59°F , 15°C
Kosteus: 88%
Ilmanpaine: 29.76 inHg , 1007.8 hPa
Clouds: Few Clouds
Visibility: 10 miles , 16 km
Cloud details: Few Clouds 2000 ft
Few Clouds 25000 ft
2024/02/22 12:53 KDFW 221253Z 21006KT 10SM FEW020 FEW250 17/15 A2976 RMK AO2 SLP070 T01670150